sensor_id;sensor_type;location;lat;lon;timestamp;P1;durP1;ratioP1;P2;durP2;ratioP2
19940;SDS011;10132;50.864;5.176;2023-07-31T00:01:26;12.77;;;4.03;;
19940;SDS011;10132;50.864;5.176;2023-07-31T00:03:28;9.63;;;3.07;;
19940;SDS011;10132;50.864;5.176;2023-07-31T00:05:30;10.90;;;3.90;;
19940;SDS011;10132;50.864;5.176;2023-07-31T00:07:32;7.82;;;3.40;;
19940;SDS011;10132;50.864;5.176;2023-07-31T00:09:34;9.50;;;3.63;;
19940;SDS011;10132;50.864;5.176;2023-07-31T00:11:36;13.32;;;3.50;;
19940;SDS011;10132;50.864;5.176;2023-07-31T00:13:38;8.95;;;4.05;;
19940;SDS011;10132;50.864;5.176;2023-07-31T00:15:41;6.45;;;3.40;;
19940;SDS011;10132;50.864;5.176;2023-07-31T00:17:42;8.25;;;3.58;;
19940;SDS011;10132;50.864;5.176;2023-07-31T00:19:45;10.07;;;3.30;;
19940;SDS011;10132;50.864;5.176;2023-07-31T00:21:49;9.95;;;3.53;;
19940;SDS011;10132;50.864;5.176;2023-07-31T00:23:51;16.07;;;3.77;;
19940;SDS011;10132;50.864;5.176;2023-07-31T00:25:52;10.60;;;3.50;;
19940;SDS011;10132;50.864;5.176;2023-07-31T00:27:54;10.70;;;3.47;;
19940;SDS011;10132;50.864;5.176;2023-07-31T00:29:56;11.63;;;3.67;;
19940;SDS011;10132;50.864;5.176;2023-07-31T00:31:59;12.95;;;3.33;;
19940;SDS011;10132;50.864;5.176;2023-07-31T00:34:01;13.35;;;3.90;;
19940;SDS011;10132;50.864;5.176;2023-07-31T00:36:03;7.47;;;3.40;;
19940;SDS011;10132;50.864;5.176;2023-07-31T00:38:06;13.85;;;3.75;;
19940;SDS011;10132;50.864;5.176;2023-07-31T00:40:08;12.48;;;3.30;;
19940;SDS011;10132;50.864;5.176;2023-07-31T00:42:10;10.63;;;3.65;;
19940;SDS011;10132;50.864;5.176;2023-07-31T00:44:12;9.23;;;3.72;;
19940;SDS011;10132;50.864;5.176;2023-07-31T00:46:14;10.15;;;4.30;;
19940;SDS011;10132;50.864;5.176;2023-07-31T00:48:18;9.00;;;3.50;;
19940;SDS011;10132;50.864;5.176;2023-07-31T00:50:20;10.57;;;3.38;;
19940;SDS011;10132;50.864;5.176;2023-07-31T00:52:22;7.90;;;3.65;;
19940;SDS011;10132;50.864;5.176;2023-07-31T00:54:25;8.43;;;3.53;;
19940;SDS011;10132;50.864;5.176;2023-07-31T00:56:27;10.18;;;3.80;;
19940;SDS011;10132;50.864;5.176;2023-07-31T00:58:30;11.68;;;4.13;;
19940;SDS011;10132;50.864;5.176;2023-07-31T01:00:32;9.30;;;3.63;;
19940;SDS011;10132;50.864;5.176;2023-07-31T01:02:34;8.00;;;2.83;;
19940;SDS011;10132;50.864;5.176;2023-07-31T01:04:38;8.88;;;3.33;;
19940;SDS011;10132;50.864;5.176;2023-07-31T01:06:43;8.55;;;3.70;;
19940;SDS011;10132;50.864;5.176;2023-07-31T01:08:51;6.28;;;2.97;;
19940;SDS011;10132;50.864;5.176;2023-07-31T01:11:00;10.38;;;3.45;;
19940;SDS011;10132;50.864;5.176;2023-07-31T01:13:08;10.80;;;3.67;;
19940;SDS011;10132;50.864;5.176;2023-07-31T01:15:10;10.05;;;3.10;;
19940;SDS011;10132;50.864;5.176;2023-07-31T01:17:14;13.73;;;4.68;;
19940;SDS011;10132;50.864;5.176;2023-07-31T01:19:15;7.95;;;3.58;;
19940;SDS011;10132;50.864;5.176;2023-07-31T01:21:29;10.52;;;4.15;;
19940;SDS011;10132;50.864;5.176;2023-07-31T01:24:00;9.52;;;3.40;;
19940;SDS011;10132;50.864;5.176;2023-07-31T01:26:18;9.02;;;3.70;;
19940;SDS011;10132;50.864;5.176;2023-07-31T01:28:23;10.25;;;3.47;;
19940;SDS011;10132;50.864;5.176;2023-07-31T01:30:32;10.95;;;3.95;;
19940;SDS011;10132;50.864;5.176;2023-07-31T01:32:37;7.28;;;3.55;;
19940;SDS011;10132;50.864;5.176;2023-07-31T01:34:42;7.82;;;3.80;;
19940;SDS011;10132;50.864;5.176;2023-07-31T01:36:45;9.10;;;3.70;;
19940;SDS011;10132;50.864;5.176;2023-07-31T01:38:46;9.07;;;3.65;;
19940;SDS011;10132;50.864;5.176;2023-07-31T01:40:50;7.95;;;4.05;;
19940;SDS011;10132;50.864;5.176;2023-07-31T01:42:54;7.15;;;3.75;;
19940;SDS011;10132;50.864;5.176;2023-07-31T01:44:56;11.43;;;4.13;;
19940;SDS011;10132;50.864;5.176;2023-07-31T01:46:58;7.47;;;3.65;;
19940;SDS011;10132;50.864;5.176;2023-07-31T01:49:00;9.20;;;3.63;;
19940;SDS011;10132;50.864;5.176;2023-07-31T01:51:03;11.25;;;4.65;;
19940;SDS011;10132;50.864;5.176;2023-07-31T01:53:05;7.75;;;4.07;;
19940;SDS011;10132;50.864;5.176;2023-07-31T01:55:07;10.32;;;4.30;;
19940;SDS011;10132;50.864;5.176;2023-07-31T01:57:09;8.88;;;3.88;;
19940;SDS011;10132;50.864;5.176;2023-07-31T01:59:13;11.55;;;4.47;;
19940;SDS011;10132;50.864;5.176;2023-07-31T02:01:15;9.63;;;4.45;;
19940;SDS011;10132;50.864;5.176;2023-07-31T02:03:17;7.95;;;3.67;;
19940;SDS011;10132;50.864;5.176;2023-07-31T02:05:18;10.73;;;4.68;;
19940;SDS011;10132;50.864;5.176;2023-07-31T02:07:20;11.18;;;4.38;;
19940;SDS011;10132;50.864;5.176;2023-07-31T02:09:22;9.30;;;4.10;;
19940;SDS011;10132;50.864;5.176;2023-07-31T02:11:24;9.65;;;3.83;;
19940;SDS011;10132;50.864;5.176;2023-07-31T02:13:26;8.38;;;4.30;;
19940;SDS011;10132;50.864;5.176;2023-07-31T02:15:29;11.02;;;4.32;;
19940;SDS011;10132;50.864;5.176;2023-07-31T02:17:31;10.43;;;4.15;;
19940;SDS011;10132;50.864;5.176;2023-07-31T02:19:33;7.55;;;3.90;;
19940;SDS011;10132;50.864;5.176;2023-07-31T02:21:35;11.18;;;4.40;;
19940;SDS011;10132;50.864;5.176;2023-07-31T02:23:36;10.05;;;3.83;;
19940;SDS011;10132;50.864;5.176;2023-07-31T02:25:38;9.85;;;4.15;;
19940;SDS011;10132;50.864;5.176;2023-07-31T02:27:40;13.90;;;4.35;;
19940;SDS011;10132;50.864;5.176;2023-07-31T02:29:42;7.55;;;4.05;;
19940;SDS011;10132;50.864;5.176;2023-07-31T02:31:46;9.38;;;4.63;;
19940;SDS011;10132;50.864;5.176;2023-07-31T02:33:48;9.85;;;4.15;;
19940;SDS011;10132;50.864;5.176;2023-07-31T02:35:49;10.00;;;3.95;;
19940;SDS011;10132;50.864;5.176;2023-07-31T02:37:51;8.88;;;4.18;;
19940;SDS011;10132;50.864;5.176;2023-07-31T02:39:53;9.63;;;4.50;;
19940;SDS011;10132;50.864;5.176;2023-07-31T02:41:55;7.82;;;4.28;;
19940;SDS011;10132;50.864;5.176;2023-07-31T02:43:57;8.45;;;3.83;;
19940;SDS011;10132;50.864;5.176;2023-07-31T02:45:59;8.30;;;4.82;;
19940;SDS011;10132;50.864;5.176;2023-07-31T02:48:02;9.00;;;3.95;;
19940;SDS011;10132;50.864;5.176;2023-07-31T02:50:05;9.02;;;4.32;;
19940;SDS011;10132;50.864;5.176;2023-07-31T02:52:07;8.32;;;4.00;;
19940;SDS011;10132;50.864;5.176;2023-07-31T02:54:09;8.20;;;4.32;;
19940;SDS011;10132;50.864;5.176;2023-07-31T02:56:11;7.40;;;4.30;;
19940;SDS011;10132;50.864;5.176;2023-07-31T02:58:13;7.35;;;4.38;;
19940;SDS011;10132;50.864;5.176;2023-07-31T03:00:15;9.60;;;4.10;;
19940;SDS011;10132;50.864;5.176;2023-07-31T03:02:17;7.95;;;4.43;;
19940;SDS011;10132;50.864;5.176;2023-07-31T03:04:21;7.30;;;4.13;;
19940;SDS011;10132;50.864;5.176;2023-07-31T03:06:23;7.35;;;4.38;;
19940;SDS011;10132;50.864;5.176;2023-07-31T03:08:26;11.20;;;4.47;;
19940;SDS011;10132;50.864;5.176;2023-07-31T03:10:28;10.80;;;4.55;;
19940;SDS011;10132;50.864;5.176;2023-07-31T03:12:30;5.90;;;4.07;;
19940;SDS011;10132;50.864;5.176;2023-07-31T03:14:32;7.47;;;4.10;;
19940;SDS011;10132;50.864;5.176;2023-07-31T03:16:34;9.45;;;4.30;;
19940;SDS011;10132;50.864;5.176;2023-07-31T03:18:36;8.85;;;3.72;;
19940;SDS011;10132;50.864;5.176;2023-07-31T03:20:43;8.95;;;4.05;;
19940;SDS011;10132;50.864;5.176;2023-07-31T03:22:45;8.02;;;3.67;;
19940;SDS011;10132;50.864;5.176;2023-07-31T03:24:47;6.22;;;3.92;;
19940;SDS011;10132;50.864;5.176;2023-07-31T03:26:48;7.80;;;4.32;;
19940;SDS011;10132;50.864;5.176;2023-07-31T03:28:50;10.35;;;4.00;;
19940;SDS011;10132;50.864;5.176;2023-07-31T03:30:52;7.20;;;4.00;;
19940;SDS011;10132;50.864;5.176;2023-07-31T03:32:54;7.22;;;4.05;;
19940;SDS011;10132;50.864;5.176;2023-07-31T03:34:56;7.40;;;4.03;;
19940;SDS011;10132;50.864;5.176;2023-07-31T03:37:00;9.85;;;3.75;;
19940;SDS011;10132;50.864;5.176;2023-07-31T03:39:02;8.45;;;3.95;;
19940;SDS011;10132;50.864;5.176;2023-07-31T03:41:04;7.35;;;4.22;;
19940;SDS011;10132;50.864;5.176;2023-07-31T03:43:06;7.90;;;3.65;;
19940;SDS011;10132;50.864;5.176;2023-07-31T03:45:09;8.57;;;3.65;;
19940;SDS011;10132;50.864;5.176;2023-07-31T03:47:11;8.85;;;3.78;;
19940;SDS011;10132;50.864;5.176;2023-07-31T03:49:12;6.32;;;3.50;;
19940;SDS011;10132;50.864;5.176;2023-07-31T03:51:14;5.18;;;3.42;;
19940;SDS011;10132;50.864;5.176;2023-07-31T03:53:18;7.78;;;3.35;;
19940;SDS011;10132;50.864;5.176;2023-07-31T03:55:20;7.05;;;3.55;;
19940;SDS011;10132;50.864;5.176;2023-07-31T03:57:22;6.00;;;3.20;;
19940;SDS011;10132;50.864;5.176;2023-07-31T03:59:23;9.02;;;3.47;;
19940;SDS011;10132;50.864;5.176;2023-07-31T04:01:25;8.25;;;3.47;;
19940;SDS011;10132;50.864;5.176;2023-07-31T04:03:27;6.75;;;3.30;;
19940;SDS011;10132;50.864;5.176;2023-07-31T04:05:30;7.57;;;3.40;;
19940;SDS011;10132;50.864;5.176;2023-07-31T04:07:32;5.78;;;3.10;;
19940;SDS011;10132;50.864;5.176;2023-07-31T04:09:36;11.02;;;3.70;;
19940;SDS011;10132;50.864;5.176;2023-07-31T04:11:38;8.32;;;3.60;;
19940;SDS011;10132;50.864;5.176;2023-07-31T04:13:40;6.38;;;3.40;;
19940;SDS011;10132;50.864;5.176;2023-07-31T04:15:42;6.00;;;3.10;;
19940;SDS011;10132;50.864;5.176;2023-07-31T04:17:48;6.07;;;3.20;;
19940;SDS011;10132;50.864;5.176;2023-07-31T04:19:50;5.00;;;2.83;;
19940;SDS011;10132;50.864;5.176;2023-07-31T04:21:52;6.13;;;3.08;;
19940;SDS011;10132;50.864;5.176;2023-07-31T04:23:54;6.10;;;3.15;;
19940;SDS011;10132;50.864;5.176;2023-07-31T04:25:59;8.60;;;3.78;;
19940;SDS011;10132;50.864;5.176;2023-07-31T04:28:01;7.78;;;3.30;;
19940;SDS011;10132;50.864;5.176;2023-07-31T04:30:04;6.13;;;3.28;;
19940;SDS011;10132;50.864;5.176;2023-07-31T04:32:07;4.78;;;3.30;;
19940;SDS011;10132;50.864;5.176;2023-07-31T04:34:09;5.95;;;3.30;;
19940;SDS011;10132;50.864;5.176;2023-07-31T04:36:11;6.72;;;3.20;;
19940;SDS011;10132;50.864;5.176;2023-07-31T04:38:13;8.25;;;3.30;;
19940;SDS011;10132;50.864;5.176;2023-07-31T04:40:16;6.95;;;3.40;;
19940;SDS011;10132;50.864;5.176;2023-07-31T04:42:19;5.20;;;3.45;;
19940;SDS011;10132;50.864;5.176;2023-07-31T04:44:21;6.88;;;3.10;;
19940;SDS011;10132;50.864;5.176;2023-07-31T04:46:23;8.68;;;3.53;;
19940;SDS011;10132;50.864;5.176;2023-07-31T04:48:25;7.05;;;3.67;;
19940;SDS011;10132;50.864;5.176;2023-07-31T04:50:27;8.27;;;3.67;;
19940;SDS011;10132;50.864;5.176;2023-07-31T04:52:30;9.88;;;3.78;;
19940;SDS011;10132;50.864;5.176;2023-07-31T04:54:32;5.60;;;3.38;;
19940;SDS011;10132;50.864;5.176;2023-07-31T04:56:34;6.53;;;3.40;;
19940;SDS011;10132;50.864;5.176;2023-07-31T04:58:38;6.85;;;3.83;;
19940;SDS011;10132;50.864;5.176;2023-07-31T05:00:39;8.52;;;3.90;;
19940;SDS011;10132;50.864;5.176;2023-07-31T05:02:42;6.43;;;2.95;;
19940;SDS011;10132;50.864;5.176;2023-07-31T05:04:44;6.80;;;3.70;;
19940;SDS011;10132;50.864;5.176;2023-07-31T05:06:45;7.68;;;3.42;;
19940;SDS011;10132;50.864;5.176;2023-07-31T05:08:47;9.20;;;3.67;;
19940;SDS011;10132;50.864;5.176;2023-07-31T05:10:49;9.57;;;3.53;;
19940;SDS011;10132;50.864;5.176;2023-07-31T05:12:51;7.03;;;3.47;;
19940;SDS011;10132;50.864;5.176;2023-07-31T05:14:55;7.10;;;3.60;;
19940;SDS011;10132;50.864;5.176;2023-07-31T05:16:57;5.05;;;3.35;;
19940;SDS011;10132;50.864;5.176;2023-07-31T05:18:59;6.53;;;3.33;;
19940;SDS011;10132;50.864;5.176;2023-07-31T05:21:00;8.57;;;3.17;;
19940;SDS011;10132;50.864;5.176;2023-07-31T05:23:02;5.78;;;3.17;;
19940;SDS011;10132;50.864;5.176;2023-07-31T05:25:04;8.25;;;3.75;;
19940;SDS011;10132;50.864;5.176;2023-07-31T05:27:07;7.18;;;3.28;;
19940;SDS011;10132;50.864;5.176;2023-07-31T05:29:09;6.55;;;3.17;;
19940;SDS011;10132;50.864;5.176;2023-07-31T05:31:13;7.50;;;3.20;;
19940;SDS011;10132;50.864;5.176;2023-07-31T05:33:15;5.40;;;3.15;;
19940;SDS011;10132;50.864;5.176;2023-07-31T05:35:17;6.43;;;3.50;;
19940;SDS011;10132;50.864;5.176;2023-07-31T05:37:19;7.00;;;3.27;;
19940;SDS011;10132;50.864;5.176;2023-07-31T05:39:21;5.07;;;3.08;;
19940;SDS011;10132;50.864;5.176;2023-07-31T05:41:23;5.45;;;2.92;;
19940;SDS011;10132;50.864;5.176;2023-07-31T05:43:25;7.78;;;3.35;;
19940;SDS011;10132;50.864;5.176;2023-07-31T05:45:27;8.40;;;3.67;;
19940;SDS011;10132;50.864;5.176;2023-07-31T05:47:30;5.97;;;3.37;;
19940;SDS011;10132;50.864;5.176;2023-07-31T05:49:31;6.30;;;3.42;;
19940;SDS011;10132;50.864;5.176;2023-07-31T05:51:33;4.93;;;2.85;;
19940;SDS011;10132;50.864;5.176;2023-07-31T05:53:35;8.70;;;3.33;;
19940;SDS011;10132;50.864;5.176;2023-07-31T05:55:40;7.80;;;3.30;;
19940;SDS011;10132;50.864;5.176;2023-07-31T05:57:42;8.57;;;3.20;;
19940;SDS011;10132;50.864;5.176;2023-07-31T05:59:45;5.80;;;3.07;;
19940;SDS011;10132;50.864;5.176;2023-07-31T06:01:48;5.88;;;3.30;;
19940;SDS011;10132;50.864;5.176;2023-07-31T06:03:51;8.93;;;3.97;;
19940;SDS011;10132;50.864;5.176;2023-07-31T06:05:53;7.43;;;2.95;;
19940;SDS011;10132;50.864;5.176;2023-07-31T06:07:55;8.63;;;3.40;;
19940;SDS011;10132;50.864;5.176;2023-07-31T06:09:57;8.32;;;3.20;;
19940;SDS011;10132;50.864;5.176;2023-07-31T06:12:04;8.27;;;3.25;;
19940;SDS011;10132;50.864;5.176;2023-07-31T06:14:06;5.88;;;3.50;;
19940;SDS011;10132;50.864;5.176;2023-07-31T06:16:08;6.90;;;3.40;;
19940;SDS011;10132;50.864;5.176;2023-07-31T06:18:10;5.55;;;3.22;;
19940;SDS011;10132;50.864;5.176;2023-07-31T06:20:14;6.07;;;3.50;;
19940;SDS011;10132;50.864;5.176;2023-07-31T06:22:15;5.85;;;3.35;;
19940;SDS011;10132;50.864;5.176;2023-07-31T06:24:17;5.53;;;3.38;;
19940;SDS011;10132;50.864;5.176;2023-07-31T06:26:20;7.10;;;3.37;;
19940;SDS011;10132;50.864;5.176;2023-07-31T06:28:23;8.07;;;3.60;;
19940;SDS011;10132;50.864;5.176;2023-07-31T06:30:29;7.40;;;3.50;;
19940;SDS011;10132;50.864;5.176;2023-07-31T06:32:32;6.85;;;3.42;;
19940;SDS011;10132;50.864;5.176;2023-07-31T06:34:34;8.13;;;3.70;;
19940;SDS011;10132;50.864;5.176;2023-07-31T06:36:37;8.60;;;3.10;;
19940;SDS011;10132;50.864;5.176;2023-07-31T06:38:39;7.80;;;3.33;;
19940;SDS011;10132;50.864;5.176;2023-07-31T06:40:41;8.77;;;3.67;;
19940;SDS011;10132;50.864;5.176;2023-07-31T06:42:43;8.77;;;3.63;;
19940;SDS011;10132;50.864;5.176;2023-07-31T06:44:44;6.90;;;3.53;;
19940;SDS011;10132;50.864;5.176;2023-07-31T06:46:46;6.83;;;3.43;;
19940;SDS011;10132;50.864;5.176;2023-07-31T06:48:48;5.33;;;2.67;;
19940;SDS011;10132;50.864;5.176;2023-07-31T06:50:50;10.03;;;3.60;;
19940;SDS011;10132;50.864;5.176;2023-07-31T06:52:53;6.60;;;3.60;;
19940;SDS011;10132;50.864;5.176;2023-07-31T06:55:00;7.83;;;3.70;;
19940;SDS011;10132;50.864;5.176;2023-07-31T06:57:04;7.70;;;3.28;;
19940;SDS011;10132;50.864;5.176;2023-07-31T06:59:06;10.38;;;3.10;;
19940;SDS011;10132;50.864;5.176;2023-07-31T07:01:08;7.25;;;3.47;;
19940;SDS011;10132;50.864;5.176;2023-07-31T07:03:10;9.03;;;4.17;;
19940;SDS011;10132;50.864;5.176;2023-07-31T07:05:15;4.57;;;3.28;;
19940;SDS011;10132;50.864;5.176;2023-07-31T07:07:18;6.23;;;3.17;;
19940;SDS011;10132;50.864;5.176;2023-07-31T07:09:21;7.67;;;3.43;;
19940;SDS011;10132;50.864;5.176;2023-07-31T07:11:23;4.30;;;2.75;;
19940;SDS011;10132;50.864;5.176;2023-07-31T07:13:25;6.82;;;2.97;;
19940;SDS011;10132;50.864;5.176;2023-07-31T07:15:27;5.40;;;2.70;;
19940;SDS011;10132;50.864;5.176;2023-07-31T07:17:30;7.47;;;3.30;;
19940;SDS011;10132;50.864;5.176;2023-07-31T07:19:32;4.80;;;3.07;;
19940;SDS011;10132;50.864;5.176;2023-07-31T07:21:34;5.95;;;2.83;;
19940;SDS011;10132;50.864;5.176;2023-07-31T07:23:36;6.55;;;2.90;;
19940;SDS011;10132;50.864;5.176;2023-07-31T07:25:39;6.20;;;3.03;;
19940;SDS011;10132;50.864;5.176;2023-07-31T07:27:41;6.22;;;2.70;;
19940;SDS011;10132;50.864;5.176;2023-07-31T07:29:43;6.90;;;3.42;;
19940;SDS011;10132;50.864;5.176;2023-07-31T07:31:46;5.80;;;2.85;;
19940;SDS011;10132;50.864;5.176;2023-07-31T07:33:48;6.45;;;3.08;;
19940;SDS011;10132;50.864;5.176;2023-07-31T07:35:50;4.95;;;2.70;;
19940;SDS011;10132;50.864;5.176;2023-07-31T07:37:52;5.82;;;2.83;;
19940;SDS011;10132;50.864;5.176;2023-07-31T07:39:54;4.78;;;2.67;;
19940;SDS011;10132;50.864;5.176;2023-07-31T07:41:59;7.13;;;2.75;;
19940;SDS011;10132;50.864;5.176;2023-07-31T07:44:01;4.80;;;2.55;;
19940;SDS011;10132;50.864;5.176;2023-07-31T07:46:03;5.47;;;2.67;;
19940;SDS011;10132;50.864;5.176;2023-07-31T07:48:05;6.32;;;2.72;;
19940;SDS011;10132;50.864;5.176;2023-07-31T07:50:06;4.35;;;2.78;;
19940;SDS011;10132;50.864;5.176;2023-07-31T07:52:09;3.85;;;2.63;;
19940;SDS011;10132;50.864;5.176;2023-07-31T07:54:11;4.63;;;2.20;;
19940;SDS011;10132;50.864;5.176;2023-07-31T07:56:13;4.28;;;2.60;;
19940;SDS011;10132;50.864;5.176;2023-07-31T07:58:16;5.25;;;2.90;;
19940;SDS011;10132;50.864;5.176;2023-07-31T08:00:18;4.20;;;2.88;;
19940;SDS011;10132;50.864;5.176;2023-07-31T08:02:19;5.97;;;2.42;;
19940;SDS011;10132;50.864;5.176;2023-07-31T08:04:21;4.10;;;2.50;;
19940;SDS011;10132;50.864;5.176;2023-07-31T08:06:23;4.88;;;2.58;;
19940;SDS011;10132;50.864;5.176;2023-07-31T08:08:26;5.63;;;2.88;;
19940;SDS011;10132;50.864;5.176;2023-07-31T08:10:29;6.05;;;2.80;;
19940;SDS011;10132;50.864;5.176;2023-07-31T08:12:31;5.00;;;2.97;;
19940;SDS011;10132;50.864;5.176;2023-07-31T08:14:34;5.28;;;2.55;;
19940;SDS011;10132;50.864;5.176;2023-07-31T08:16:36;5.53;;;3.03;;
19940;SDS011;10132;50.864;5.176;2023-07-31T08:18:38;3.97;;;2.72;;
19940;SDS011;10132;50.864;5.176;2023-07-31T08:20:42;5.17;;;2.60;;
19940;SDS011;10132;50.864;5.176;2023-07-31T08:22:44;7.07;;;2.75;;
19940;SDS011;10132;50.864;5.176;2023-07-31T08:24:46;8.55;;;3.20;;
19940;SDS011;10132;50.864;5.176;2023-07-31T08:26:48;6.60;;;2.92;;
19940;SDS011;10132;50.864;5.176;2023-07-31T08:28:50;5.37;;;2.83;;
19940;SDS011;10132;50.864;5.176;2023-07-31T08:30:54;6.07;;;3.08;;
19940;SDS011;10132;50.864;5.176;2023-07-31T08:32:56;5.28;;;3.45;;
19940;SDS011;10132;50.864;5.176;2023-07-31T08:34:58;7.30;;;3.08;;
19940;SDS011;10132;50.864;5.176;2023-07-31T08:36:59;4.82;;;3.10;;
19940;SDS011;10132;50.864;5.176;2023-07-31T08:39:01;5.55;;;2.58;;
19940;SDS011;10132;50.864;5.176;2023-07-31T08:41:04;5.75;;;3.22;;
19940;SDS011;10132;50.864;5.176;2023-07-31T08:43:06;5.07;;;2.95;;
19940;SDS011;10132;50.864;5.176;2023-07-31T08:45:11;7.05;;;3.35;;
19940;SDS011;10132;50.864;5.176;2023-07-31T08:47:17;5.45;;;2.97;;
19940;SDS011;10132;50.864;5.176;2023-07-31T08:49:21;7.53;;;3.40;;
19940;SDS011;10132;50.864;5.176;2023-07-31T08:51:24;7.43;;;3.15;;
19940;SDS011;10132;50.864;5.176;2023-07-31T08:53:26;4.47;;;2.75;;
19940;SDS011;10132;50.864;5.176;2023-07-31T08:55:28;5.60;;;2.53;;
19940;SDS011;10132;50.864;5.176;2023-07-31T08:57:31;8.48;;;3.13;;
19940;SDS011;10132;50.864;5.176;2023-07-31T08:59:36;6.32;;;2.95;;
19940;SDS011;10132;50.864;5.176;2023-07-31T09:01:40;5.15;;;2.90;;
19940;SDS011;10132;50.864;5.176;2023-07-31T09:03:50;4.10;;;2.72;;
19940;SDS011;10132;50.864;5.176;2023-07-31T09:05:53;5.63;;;2.75;;
19940;SDS011;10132;50.864;5.176;2023-07-31T09:07:59;4.80;;;2.63;;
19940;SDS011;10132;50.864;5.176;2023-07-31T09:10:03;3.45;;;2.30;;
19940;SDS011;10132;50.864;5.176;2023-07-31T09:12:06;4.72;;;2.55;;
19940;SDS011;10132;50.864;5.176;2023-07-31T09:14:09;4.70;;;2.63;;
19940;SDS011;10132;50.864;5.176;2023-07-31T09:16:12;4.32;;;2.33;;
19940;SDS011;10132;50.864;5.176;2023-07-31T09:18:14;3.80;;;2.35;;
19940;SDS011;10132;50.864;5.176;2023-07-31T09:22:31;2.97;;;2.25;;
19940;SDS011;10132;50.864;5.176;2023-07-31T09:24:34;3.13;;;2.13;;
19940;SDS011;10132;50.864;5.176;2023-07-31T09:26:36;3.17;;;2.05;;
19940;SDS011;10132;50.864;5.176;2023-07-31T09:28:38;4.55;;;1.77;;
19940;SDS011;10132;50.864;5.176;2023-07-31T09:30:44;2.75;;;1.60;;
19940;SDS011;10132;50.864;5.176;2023-07-31T09:32:48;4.03;;;1.77;;
19940;SDS011;10132;50.864;5.176;2023-07-31T09:34:51;3.20;;;1.55;;
19940;SDS011;10132;50.864;5.176;2023-07-31T09:36:57;3.83;;;1.80;;
19940;SDS011;10132;50.864;5.176;2023-07-31T09:39:02;3.15;;;1.67;;
19940;SDS011;10132;50.864;5.176;2023-07-31T09:41:05;2.50;;;1.70;;
19940;SDS011;10132;50.864;5.176;2023-07-31T09:43:08;3.38;;;1.40;;
19940;SDS011;10132;50.864;5.176;2023-07-31T09:45:11;2.38;;;1.73;;
19940;SDS011;10132;50.864;5.176;2023-07-31T09:47:20;3.08;;;1.65;;
19940;SDS011;10132;50.864;5.176;2023-07-31T09:49:24;2.53;;;1.60;;
19940;SDS011;10132;50.864;5.176;2023-07-31T09:51:26;2.58;;;1.60;;
19940;SDS011;10132;50.864;5.176;2023-07-31T09:53:30;5.93;;;1.63;;
19940;SDS011;10132;50.864;5.176;2023-07-31T09:55:32;2.38;;;1.70;;
19940;SDS011;10132;50.864;5.176;2023-07-31T09:57:33;4.60;;;1.55;;
19940;SDS011;10132;50.864;5.176;2023-07-31T09:59:37;5.20;;;1.90;;
19940;SDS011;10132;50.864;5.176;2023-07-31T10:01:40;2.40;;;1.88;;
19940;SDS011;10132;50.864;5.176;2023-07-31T10:03:43;4.20;;;2.00;;
19940;SDS011;10132;50.864;5.176;2023-07-31T10:05:50;2.60;;;1.98;;
19940;SDS011;10132;50.864;5.176;2023-07-31T10:07:54;4.65;;;2.30;;
19940;SDS011;10132;50.864;5.176;2023-07-31T10:09:59;4.32;;;1.98;;
19940;SDS011;10132;50.864;5.176;2023-07-31T10:12:02;3.10;;;2.08;;
19940;SDS011;10132;50.864;5.176;2023-07-31T10:14:10;4.28;;;2.03;;
19940;SDS011;10132;50.864;5.176;2023-07-31T10:16:13;3.67;;;2.20;;
19940;SDS011;10132;50.864;5.176;2023-07-31T10:18:16;4.45;;;2.40;;
19940;SDS011;10132;50.864;5.176;2023-07-31T10:20:20;5.75;;;3.22;;
19940;SDS011;10132;50.864;5.176;2023-07-31T10:22:23;5.72;;;2.90;;
19940;SDS011;10132;50.864;5.176;2023-07-31T10:24:26;4.70;;;2.72;;
19940;SDS011;10132;50.864;5.176;2023-07-31T10:26:31;5.68;;;3.10;;
19940;SDS011;10132;50.864;5.176;2023-07-31T10:28:34;6.65;;;3.30;;
19940;SDS011;10132;50.864;5.176;2023-07-31T10:30:37;5.35;;;3.15;;
19940;SDS011;10132;50.864;5.176;2023-07-31T10:32:41;5.13;;;2.97;;
19940;SDS011;10132;50.864;5.176;2023-07-31T10:34:45;5.43;;;3.40;;
19940;SDS011;10132;50.864;5.176;2023-07-31T10:36:49;7.78;;;3.08;;
19940;SDS011;10132;50.864;5.176;2023-07-31T10:38:51;5.15;;;3.10;;
19940;SDS011;10132;50.864;5.176;2023-07-31T10:40:53;8.25;;;3.83;;
19940;SDS011;10132;50.864;5.176;2023-07-31T10:43:11;5.57;;;3.25;;
19940;SDS011;10132;50.864;5.176;2023-07-31T10:45:32;7.15;;;3.80;;
19940;SDS011;10132;50.864;5.176;2023-07-31T10:47:37;5.32;;;3.50;;
19940;SDS011;10132;50.864;5.176;2023-07-31T10:49:39;6.78;;;3.25;;
19940;SDS011;10132;50.864;5.176;2023-07-31T10:51:40;5.50;;;3.55;;
19940;SDS011;10132;50.864;5.176;2023-07-31T10:53:43;8.77;;;3.95;;
19940;SDS011;10132;50.864;5.176;2023-07-31T10:55:45;5.53;;;3.25;;
19940;SDS011;10132;50.864;5.176;2023-07-31T10:57:48;7.68;;;3.53;;
19940;SDS011;10132;50.864;5.176;2023-07-31T10:59:51;6.20;;;3.38;;
19940;SDS011;10132;50.864;5.176;2023-07-31T11:02:25;7.32;;;3.80;;
19940;SDS011;10132;50.864;5.176;2023-07-31T11:04:30;6.90;;;3.50;;
19940;SDS011;10132;50.864;5.176;2023-07-31T11:06:33;7.80;;;3.67;;
19940;SDS011;10132;50.864;5.176;2023-07-31T11:08:41;7.10;;;3.80;;
19940;SDS011;10132;50.864;5.176;2023-07-31T11:10:44;6.28;;;3.53;;
19940;SDS011;10132;50.864;5.176;2023-07-31T11:12:46;7.65;;;3.53;;
19940;SDS011;10132;50.864;5.176;2023-07-31T11:14:54;5.65;;;3.38;;
19940;SDS011;10132;50.864;5.176;2023-07-31T11:16:58;6.25;;;3.47;;
19940;SDS011;10132;50.864;5.176;2023-07-31T11:19:00;7.53;;;3.78;;
19940;SDS011;10132;50.864;5.176;2023-07-31T11:21:02;6.78;;;3.28;;
19940;SDS011;10132;50.864;5.176;2023-07-31T11:23:06;5.35;;;3.45;;
19940;SDS011;10132;50.864;5.176;2023-07-31T11:25:10;5.82;;;3.25;;
19940;SDS011;10132;50.864;5.176;2023-07-31T11:27:12;8.90;;;3.40;;
19940;SDS011;10132;50.864;5.176;2023-07-31T11:29:14;5.60;;;3.47;;
19940;SDS011;10132;50.864;5.176;2023-07-31T11:31:18;6.00;;;3.40;;
19940;SDS011;10132;50.864;5.176;2023-07-31T11:33:20;6.20;;;3.38;;
19940;SDS011;10132;50.864;5.176;2023-07-31T11:35:22;7.05;;;3.80;;
19940;SDS011;10132;50.864;5.176;2023-07-31T11:37:24;5.38;;;3.67;;
19940;SDS011;10132;50.864;5.176;2023-07-31T11:39:39;5.13;;;3.25;;
19940;SDS011;10132;50.864;5.176;2023-07-31T11:41:41;6.22;;;3.22;;
19940;SDS011;10132;50.864;5.176;2023-07-31T11:43:44;8.25;;;3.70;;
19940;SDS011;10132;50.864;5.176;2023-07-31T11:45:47;7.55;;;3.75;;
19940;SDS011;10132;50.864;5.176;2023-07-31T11:47:52;6.00;;;3.35;;
19940;SDS011;10132;50.864;5.176;2023-07-31T11:49:54;6.03;;;3.70;;
19940;SDS011;10132;50.864;5.176;2023-07-31T11:51:56;6.22;;;3.63;;
19940;SDS011;10132;50.864;5.176;2023-07-31T11:53:59;5.18;;;3.22;;
19940;SDS011;10132;50.864;5.176;2023-07-31T11:56:03;8.55;;;3.65;;
19940;SDS011;10132;50.864;5.176;2023-07-31T11:58:06;7.60;;;3.75;;
19940;SDS011;10132;50.864;5.176;2023-07-31T12:00:09;5.97;;;3.30;;
19940;SDS011;10132;50.864;5.176;2023-07-31T12:02:14;7.95;;;3.50;;
19940;SDS011;10132;50.864;5.176;2023-07-31T12:04:17;4.88;;;3.15;;
19940;SDS011;10132;50.864;5.176;2023-07-31T12:06:20;5.50;;;3.22;;
19940;SDS011;10132;50.864;5.176;2023-07-31T12:08:23;6.25;;;3.22;;
19940;SDS011;10132;50.864;5.176;2023-07-31T12:10:26;6.28;;;3.03;;
19940;SDS011;10132;50.864;5.176;2023-07-31T12:12:28;7.53;;;3.30;;
19940;SDS011;10132;50.864;5.176;2023-07-31T12:14:30;11.32;;;3.38;;
19940;SDS011;10132;50.864;5.176;2023-07-31T12:16:32;6.57;;;3.55;;
19940;SDS011;10132;50.864;5.176;2023-07-31T12:18:35;6.53;;;3.50;;
19940;SDS011;10132;50.864;5.176;2023-07-31T12:20:43;9.32;;;3.50;;
19940;SDS011;10132;50.864;5.176;2023-07-31T12:22:45;5.13;;;3.28;;